sensor_id;sensor_type;location;lat;lon;timestamp;temperature;humidity
28069;DHT22;15382;47.578;8.086;2024-01-30T00:09:32;0.90;99.90
28069;DHT22;15382;47.578;8.086;2024-01-30T00:19:32;0.80;99.90
28069;DHT22;15382;47.578;8.086;2024-01-30T00:29:33;0.60;99.90
28069;DHT22;15382;47.578;8.086;2024-01-30T00:39:34;0.40;99.90
28069;DHT22;15382;47.578;8.086;2024-01-30T00:49:34;0.10;99.90
28069;DHT22;15382;47.578;8.086;2024-01-30T00:59:35;-0.10;99.90
28069;DHT22;15382;47.578;8.086;2024-01-30T01:09:36;-0.20;99.90
28069;DHT22;15382;47.578;8.086;2024-01-30T01:19:37;-0.30;99.90
28069;DHT22;15382;47.578;8.086;2024-01-30T01:29:37;-0.20;99.90
28069;DHT22;15382;47.578;8.086;2024-01-30T01:39:38;-0.10;99.90
28069;DHT22;15382;47.578;8.086;2024-01-30T01:49:39;-0.30;99.90
28069;DHT22;15382;47.578;8.086;2024-01-30T01:59:39;-0.50;99.90
28069;DHT22;15382;47.578;8.086;2024-01-30T02:09:40;-0.40;99.90
28069;DHT22;15382;47.578;8.086;2024-01-30T02:19:41;-0.60;99.90
28069;DHT22;15382;47.578;8.086;2024-01-30T02:29:41;-0.70;99.90
28069;DHT22;15382;47.578;8.086;2024-01-30T02:39:42;-0.70;99.90
28069;DHT22;15382;47.578;8.086;2024-01-30T02:49:43;-0.80;99.90
28069;DHT22;15382;47.578;8.086;2024-01-30T02:59:43;-0.80;99.90
28069;DHT22;15382;47.578;8.086;2024-01-30T03:09:44;-0.80;99.90
28069;DHT22;15382;47.578;8.086;2024-01-30T03:19:45;-0.90;99.90
28069;DHT22;15382;47.578;8.086;2024-01-30T03:29:45;-0.80;99.90
28069;DHT22;15382;47.578;8.086;2024-01-30T03:39:46;-0.80;99.90
28069;DHT22;15382;47.578;8.086;2024-01-30T03:49:46;-0.90;99.90
28069;DHT22;15382;47.578;8.086;2024-01-30T03:59:47;-0.90;99.90
28069;DHT22;15382;47.578;8.086;2024-01-30T04:09:48;-0.90;99.90
28069;DHT22;15382;47.578;8.086;2024-01-30T04:19:48;-1.00;99.90
28069;DHT22;15382;47.578;8.086;2024-01-30T04:29:49;-1.00;99.90
28069;DHT22;15382;47.578;8.086;2024-01-30T04:39:50;-1.00;99.90
28069;DHT22;15382;47.578;8.086;2024-01-30T04:49:51;-1.00;99.90
28069;DHT22;15382;47.578;8.086;2024-01-30T04:59:52;-1.00;99.90
28069;DHT22;15382;47.578;8.086;2024-01-30T05:09:52;-1.00;99.90
28069;DHT22;15382;47.578;8.086;2024-01-30T05:19:54;-1.10;99.90
28069;DHT22;15382;47.578;8.086;2024-01-30T05:29:54;-1.10;99.90
28069;DHT22;15382;47.578;8.086;2024-01-30T05:39:55;-1.10;99.90
28069;DHT22;15382;47.578;8.086;2024-01-30T05:49:56;-1.10;99.90
28069;DHT22;15382;47.578;8.086;2024-01-30T05:59:56;-1.10;99.90
28069;DHT22;15382;47.578;8.086;2024-01-30T06:09:57;-1.10;99.90
28069;DHT22;15382;47.578;8.086;2024-01-30T06:19:58;-1.10;99.90
28069;DHT22;15382;47.578;8.086;2024-01-30T06:29:58;-1.10;99.90
28069;DHT22;15382;47.578;8.086;2024-01-30T06:39:59;-1.20;99.90
28069;DHT22;15382;47.578;8.086;2024-01-30T06:50:00;-1.10;99.90
28069;DHT22;15382;47.578;8.086;2024-01-30T07:00:02;-1.10;99.90
28069;DHT22;15382;47.578;8.086;2024-01-30T07:10:03;-1.10;99.90
28069;DHT22;15382;47.578;8.086;2024-01-30T07:20:04;-1.10;99.90
28069;DHT22;15382;47.578;8.086;2024-01-30T07:30:05;-1.20;99.90
28069;DHT22;15382;47.578;8.086;2024-01-30T07:40:06;-1.10;99.90
28069;DHT22;15382;47.578;8.086;2024-01-30T07:50:07;-1.10;99.90
28069;DHT22;15382;47.578;8.086;2024-01-30T08:00:08;-1.10;99.90
28069;DHT22;15382;47.578;8.086;2024-01-30T08:10:11;-0.90;99.90
28069;DHT22;15382;47.578;8.086;2024-01-30T08:20:12;-0.80;99.90
28069;DHT22;15382;47.578;8.086;2024-01-30T08:30:12;-0.60;99.90
28069;DHT22;15382;47.578;8.086;2024-01-30T08:40:13;-0.30;99.90
28069;DHT22;15382;47.578;8.086;2024-01-30T08:50:14;-0.10;99.90
28069;DHT22;15382;47.578;8.086;2024-01-30T09:00:14;0.30;99.90
28069;DHT22;15382;47.578;8.086;2024-01-30T09:10:15;0.70;99.90
28069;DHT22;15382;47.578;8.086;2024-01-30T09:20:16;0.50;99.90
28069;DHT22;15382;47.578;8.086;2024-01-30T09:30:16;0.40;99.90
28069;DHT22;15382;47.578;8.086;2024-01-30T09:40:17;0.60;99.90
28069;DHT22;15382;47.578;8.086;2024-01-30T09:50:19;0.80;99.90
28069;DHT22;15382;47.578;8.086;2024-01-30T10:00:20;1.10;99.90
28069;DHT22;15382;47.578;8.086;2024-01-30T10:10:23;1.20;99.90
28069;DHT22;15382;47.578;8.086;2024-01-30T10:20:24;0.90;99.90
28069;DHT22;15382;47.578;8.086;2024-01-30T10:30:25;1.30;99.90
28069;DHT22;15382;47.578;8.086;2024-01-30T10:40:29;1.30;99.90
28069;DHT22;15382;47.578;8.086;2024-01-30T10:50:29;1.50;99.90
28069;DHT22;15382;47.578;8.086;2024-01-30T11:00:31;1.90;99.90
28069;DHT22;15382;47.578;8.086;2024-01-30T11:10:33;2.10;99.90
28069;DHT22;15382;47.578;8.086;2024-01-30T11:20:44;3.10;99.90
28069;DHT22;15382;47.578;8.086;2024-01-30T11:30:47;3.20;99.90
28069;DHT22;15382;47.578;8.086;2024-01-30T11:40:47;3.10;99.90
28069;DHT22;15382;47.578;8.086;2024-01-30T11:50:49;3.60;99.90
28069;DHT22;15382;47.578;8.086;2024-01-30T12:00:54;4.00;99.90
28069;DHT22;15382;47.578;8.086;2024-01-30T12:10:59;4.50;99.90
28069;DHT22;15382;47.578;8.086;2024-01-30T12:21:02;6.10;99.90
28069;DHT22;15382;47.578;8.086;2024-01-30T12:31:03;7.90;99.90
28069;DHT22;15382;47.578;8.086;2024-01-30T12:41:04;9.50;99.90
28069;DHT22;15382;47.578;8.086;2024-01-30T12:51:05;10.80;99.90
28069;DHT22;15382;47.578;8.086;2024-01-30T13:01:05;11.50;99.90
28069;DHT22;15382;47.578;8.086;2024-01-30T13:11:06;11.40;99.90
28069;DHT22;15382;47.578;8.086;2024-01-30T13:21:07;9.10;99.90
28069;DHT22;15382;47.578;8.086;2024-01-30T13:31:08;7.20;99.90
28069;DHT22;15382;47.578;8.086;2024-01-30T13:41:08;7.10;99.90
28069;DHT22;15382;47.578;8.086;2024-01-30T13:51:09;6.90;99.90
28069;DHT22;15382;47.578;8.086;2024-01-30T14:01:11;7.10;99.90
28069;DHT22;15382;47.578;8.086;2024-01-30T14:11:12;7.30;99.90
28069;DHT22;15382;47.578;8.086;2024-01-30T14:21:12;7.60;99.90
28069;DHT22;15382;47.578;8.086;2024-01-30T14:31:13;7.50;99.90
28069;DHT22;15382;47.578;8.086;2024-01-30T14:41:14;7.30;99.90
28069;DHT22;15382;47.578;8.086;2024-01-30T14:51:15;7.20;99.90
28069;DHT22;15382;47.578;8.086;2024-01-30T15:01:15;7.20;99.90
28069;DHT22;15382;47.578;8.086;2024-01-30T15:11:16;7.20;99.90
28069;DHT22;15382;47.578;8.086;2024-01-30T15:21:17;6.60;99.90
28069;DHT22;15382;47.578;8.086;2024-01-30T15:31:22;6.70;99.90
28069;DHT22;15382;47.578;8.086;2024-01-30T15:41:23;6.90;99.90
28069;DHT22;15382;47.578;8.086;2024-01-30T15:51:24;6.60;99.90
28069;DHT22;15382;47.578;8.086;2024-01-30T16:01:24;6.50;99.90
28069;DHT22;15382;47.578;8.086;2024-01-30T16:11:25;6.30;99.90
28069;DHT22;15382;47.578;8.086;2024-01-30T16:21:26;6.00;99.90
28069;DHT22;15382;47.578;8.086;2024-01-30T16:31:26;5.90;99.90
28069;DHT22;15382;47.578;8.086;2024-01-30T16:41:27;5.50;99.90
28069;DHT22;15382;47.578;8.086;2024-01-30T16:51:27;5.50;99.90
28069;DHT22;15382;47.578;8.086;2024-01-30T17:01:30;5.50;99.90
28069;DHT22;15382;47.578;8.086;2024-01-30T17:11:31;5.40;99.90
28069;DHT22;15382;47.578;8.086;2024-01-30T17:21:31;5.40;99.90
28069;DHT22;15382;47.578;8.086;2024-01-30T17:31:34;5.30;99.90
28069;DHT22;15382;47.578;8.086;2024-01-30T17:41:36;5.20;99.90
28069;DHT22;15382;47.578;8.086;2024-01-30T17:51:39;5.30;99.90
28069;DHT22;15382;47.578;8.086;2024-01-30T18:01:40;5.30;99.90
28069;DHT22;15382;47.578;8.086;2024-01-30T18:11:46;5.10;99.90
28069;DHT22;15382;47.578;8.086;2024-01-30T18:21:46;5.10;99.90
28069;DHT22;15382;47.578;8.086;2024-01-30T18:31:47;5.20;99.90
28069;DHT22;15382;47.578;8.086;2024-01-30T18:41:47;5.10;99.90
28069;DHT22;15382;47.578;8.086;2024-01-30T18:51:48;5.00;99.90
28069;DHT22;15382;47.578;8.086;2024-01-30T19:01:53;4.90;99.90
28069;DHT22;15382;47.578;8.086;2024-01-30T19:11:54;4.90;99.90
28069;DHT22;15382;47.578;8.086;2024-01-30T19:21:55;4.70;99.90
28069;DHT22;15382;47.578;8.086;2024-01-30T19:31:56;4.80;99.90
28069;DHT22;15382;47.578;8.086;2024-01-30T19:41:57;4.70;99.90
28069;DHT22;15382;47.578;8.086;2024-01-30T19:51:58;4.60;99.90
28069;DHT22;15382;47.578;8.086;2024-01-30T20:02:03;4.60;99.90
28069;DHT22;15382;47.578;8.086;2024-01-30T20:12:04;4.60;99.90
28069;DHT22;15382;47.578;8.086;2024-01-30T20:22:05;4.60;99.90
28069;DHT22;15382;47.578;8.086;2024-01-30T20:32:05;4.60;99.90
28069;DHT22;15382;47.578;8.086;2024-01-30T20:42:06;4.50;99.90
28069;DHT22;15382;47.578;8.086;2024-01-30T20:52:07;4.60;99.90
28069;DHT22;15382;47.578;8.086;2024-01-30T21:02:07;4.60;99.90
28069;DHT22;15382;47.578;8.086;2024-01-30T21:12:08;4.60;99.90
28069;DHT22;15382;47.578;8.086;2024-01-30T21:22:09;4.60;99.90
28069;DHT22;15382;47.578;8.086;2024-01-30T21:32:11;4.70;99.90
28069;DHT22;15382;47.578;8.086;2024-01-30T21:42:11;4.70;99.90
28069;DHT22;15382;47.578;8.086;2024-01-30T21:52:12;4.60;99.90
28069;DHT22;15382;47.578;8.086;2024-01-30T22:02:13;4.20;99.90
28069;DHT22;15382;47.578;8.086;2024-01-30T22:12:13;3.90;99.90
28069;DHT22;15382;47.578;8.086;2024-01-30T22:22:14;3.60;99.90
28069;DHT22;15382;47.578;8.086;2024-01-30T22:32:15;3.50;99.90
28069;DHT22;15382;47.578;8.086;2024-01-30T22:42:15;3.30;99.90
28069;DHT22;15382;47.578;8.086;2024-01-30T22:52:16;3.40;99.90
28069;DHT22;15382;47.578;8.086;2024-01-30T23:02:16;3.50;99.90
28069;DHT22;15382;47.578;8.086;2024-01-30T23:12:17;3.40;99.90
28069;DHT22;15382;47.578;8.086;2024-01-30T23:22:18;3.60;99.90
28069;DHT22;15382;47.578;8.086;2024-01-30T23:32:18;3.70;99.90
28069;DHT22;15382;47.578;8.086;2024-01-30T23:42:19;3.60;99.90
28069;DHT22;15382;47.578;8.086;2024-01-30T23:52:20;3.60;99.90
